sensor_id;sensor_type;location;lat;lon;timestamp;temperature;humidity
42097;DHT22;27754;45.414;11.084;2023-07-13T00:01:48;24.90;74.50
42097;DHT22;27754;45.414;11.084;2023-07-13T00:04:21;24.80;74.40
42097;DHT22;27754;45.414;11.084;2023-07-13T00:06:49;24.50;73.30
42097;DHT22;27754;45.414;11.084;2023-07-13T00:09:18;24.10;74.50
42097;DHT22;27754;45.414;11.084;2023-07-13T00:11:45;23.70;75.80
42097;DHT22;27754;45.414;11.084;2023-07-13T00:14:15;23.40;75.90
42097;DHT22;27754;45.414;11.084;2023-07-13T00:16:42;23.10;76.10
42097;DHT22;27754;45.414;11.084;2023-07-13T00:19:13;22.90;75.70
42097;DHT22;27754;45.414;11.084;2023-07-13T00:21:41;22.60;74.90
42097;DHT22;27754;45.414;11.084;2023-07-13T00:24:11;22.60;73.60
42097;DHT22;27754;45.414;11.084;2023-07-13T00:26:40;22.70;70.70
42097;DHT22;27754;45.414;11.084;2023-07-13T00:29:08;22.90;69.00
42097;DHT22;27754;45.414;11.084;2023-07-13T00:31:36;23.10;68.40
42097;DHT22;27754;45.414;11.084;2023-07-13T00:34:04;23.20;67.40
42097;DHT22;27754;45.414;11.084;2023-07-13T00:36:31;23.30;66.50
42097;DHT22;27754;45.414;11.084;2023-07-13T00:38:58;23.40;66.60
42097;DHT22;27754;45.414;11.084;2023-07-13T00:41:26;23.60;66.70
42097;DHT22;27754;45.414;11.084;2023-07-13T00:43:53;23.60;67.50
42097;DHT22;27754;45.414;11.084;2023-07-13T00:46:32;23.50;67.70
42097;DHT22;27754;45.414;11.084;2023-07-13T00:49:03;23.50;67.20
42097;DHT22;27754;45.414;11.084;2023-07-13T00:51:39;23.60;66.60
42097;DHT22;27754;45.414;11.084;2023-07-13T00:54:11;23.70;66.70
42097;DHT22;27754;45.414;11.084;2023-07-13T00:56:41;23.70;66.60
42097;DHT22;27754;45.414;11.084;2023-07-13T00:59:11;23.70;66.60
42097;DHT22;27754;45.414;11.084;2023-07-13T01:01:39;23.60;67.00
42097;DHT22;27754;45.414;11.084;2023-07-13T01:04:06;23.60;67.30
42097;DHT22;27754;45.414;11.084;2023-07-13T01:06:39;23.70;67.70
42097;DHT22;27754;45.414;11.084;2023-07-13T01:09:08;23.60;68.30
42097;DHT22;27754;45.414;11.084;2023-07-13T01:11:35;23.60;68.10
42097;DHT22;27754;45.414;11.084;2023-07-13T01:14:03;23.50;68.10
42097;DHT22;27754;45.414;11.084;2023-07-13T01:16:35;23.50;68.60
42097;DHT22;27754;45.414;11.084;2023-07-13T01:19:11;23.50;69.00
42097;DHT22;27754;45.414;11.084;2023-07-13T01:21:40;23.50;69.40
42097;DHT22;27754;45.414;11.084;2023-07-13T01:24:09;23.30;70.00
42097;DHT22;27754;45.414;11.084;2023-07-13T01:26:37;23.20;70.90
42097;DHT22;27754;45.414;11.084;2023-07-13T01:29:06;23.00;71.60
42097;DHT22;27754;45.414;11.084;2023-07-13T01:31:37;22.90;72.80
42097;DHT22;27754;45.414;11.084;2023-07-13T01:34:04;22.80;73.80
42097;DHT22;27754;45.414;11.084;2023-07-13T01:36:31;22.50;74.90
42097;DHT22;27754;45.414;11.084;2023-07-13T01:38:58;22.40;75.30
42097;DHT22;27754;45.414;11.084;2023-07-13T01:41:25;22.30;76.30
42097;DHT22;27754;45.414;11.084;2023-07-13T01:43:53;22.30;76.40
42097;DHT22;27754;45.414;11.084;2023-07-13T01:46:20;22.30;77.00
42097;DHT22;27754;45.414;11.084;2023-07-13T01:48:50;22.30;77.10
42097;DHT22;27754;45.414;11.084;2023-07-13T01:51:18;22.30;77.30
42097;DHT22;27754;45.414;11.084;2023-07-13T01:53:46;22.30;77.30
42097;DHT22;27754;45.414;11.084;2023-07-13T01:56:13;22.30;77.10
42097;DHT22;27754;45.414;11.084;2023-07-13T01:58:40;22.20;77.70
42097;DHT22;27754;45.414;11.084;2023-07-13T02:01:07;22.10;77.90
42097;DHT22;27754;45.414;11.084;2023-07-13T02:03:34;22.10;78.50
42097;DHT22;27754;45.414;11.084;2023-07-13T02:06:01;22.10;78.80
42097;DHT22;27754;45.414;11.084;2023-07-13T02:08:28;22.00;78.80
42097;DHT22;27754;45.414;11.084;2023-07-13T02:10:55;22.00;78.70
42097;DHT22;27754;45.414;11.084;2023-07-13T02:13:22;22.00;78.90
42097;DHT22;27754;45.414;11.084;2023-07-13T02:15:52;21.90;79.00
42097;DHT22;27754;45.414;11.084;2023-07-13T02:18:19;21.80;79.20
42097;DHT22;27754;45.414;11.084;2023-07-13T02:20:46;21.90;79.40
42097;DHT22;27754;45.414;11.084;2023-07-13T02:23:13;21.90;79.70
42097;DHT22;27754;45.414;11.084;2023-07-13T02:25:40;21.80;80.20
42097;DHT22;27754;45.414;11.084;2023-07-13T02:28:08;21.80;80.80
42097;DHT22;27754;45.414;11.084;2023-07-13T02:30:35;21.80;81.30
42097;DHT22;27754;45.414;11.084;2023-07-13T02:33:02;21.80;81.30
42097;DHT22;27754;45.414;11.084;2023-07-13T02:35:29;21.70;81.90
42097;DHT22;27754;45.414;11.084;2023-07-13T02:37:58;21.70;82.00
42097;DHT22;27754;45.414;11.084;2023-07-13T02:40:25;21.60;82.20
42097;DHT22;27754;45.414;11.084;2023-07-13T02:42:52;21.50;82.80
42097;DHT22;27754;45.414;11.084;2023-07-13T02:45:19;21.60;82.30
42097;DHT22;27754;45.414;11.084;2023-07-13T02:47:46;21.60;82.20
42097;DHT22;27754;45.414;11.084;2023-07-13T02:50:14;21.60;82.10
42097;DHT22;27754;45.414;11.084;2023-07-13T02:52:40;21.70;81.60
42097;DHT22;27754;45.414;11.084;2023-07-13T02:55:08;21.70;81.80
42097;DHT22;27754;45.414;11.084;2023-07-13T02:57:36;21.60;82.10
42097;DHT22;27754;45.414;11.084;2023-07-13T03:00:04;21.60;81.80
42097;DHT22;27754;45.414;11.084;2023-07-13T03:02:35;21.70;81.60
42097;DHT22;27754;45.414;11.084;2023-07-13T03:05:02;21.70;81.80
42097;DHT22;27754;45.414;11.084;2023-07-13T03:07:30;21.60;81.80
42097;DHT22;27754;45.414;11.084;2023-07-13T03:09:58;21.60;81.90
42097;DHT22;27754;45.414;11.084;2023-07-13T03:12:34;21.70;81.40
42097;DHT22;27754;45.414;11.084;2023-07-13T03:15:05;21.60;81.20
42097;DHT22;27754;45.414;11.084;2023-07-13T03:17:33;21.60;81.10
42097;DHT22;27754;45.414;11.084;2023-07-13T03:20:00;21.70;81.10
42097;DHT22;27754;45.414;11.084;2023-07-13T03:22:28;21.70;81.80
42097;DHT22;27754;45.414;11.084;2023-07-13T03:24:55;21.80;81.70
42097;DHT22;27754;45.414;11.084;2023-07-13T03:27:22;21.80;81.70
42097;DHT22;27754;45.414;11.084;2023-07-13T03:29:50;21.80;81.60
42097;DHT22;27754;45.414;11.084;2023-07-13T03:32:17;21.90;81.40
42097;DHT22;27754;45.414;11.084;2023-07-13T03:34:44;21.90;81.20
42097;DHT22;27754;45.414;11.084;2023-07-13T03:37:13;22.00;81.10
42097;DHT22;27754;45.414;11.084;2023-07-13T03:39:40;21.90;80.90
42097;DHT22;27754;45.414;11.084;2023-07-13T03:42:07;21.80;81.40
42097;DHT22;27754;45.414;11.084;2023-07-13T03:44:35;21.90;81.50
42097;DHT22;27754;45.414;11.084;2023-07-13T03:47:03;21.80;81.60
42097;DHT22;27754;45.414;11.084;2023-07-13T03:49:32;21.80;82.20
42097;DHT22;27754;45.414;11.084;2023-07-13T03:51:59;21.80;82.20
42097;DHT22;27754;45.414;11.084;2023-07-13T03:54:27;21.80;82.20
42097;DHT22;27754;45.414;11.084;2023-07-13T03:56:54;21.80;82.50
42097;DHT22;27754;45.414;11.084;2023-07-13T03:59:21;21.80;82.60
42097;DHT22;27754;45.414;11.084;2023-07-13T04:01:48;21.80;82.90
42097;DHT22;27754;45.414;11.084;2023-07-13T04:04:15;21.90;82.90
42097;DHT22;27754;45.414;11.084;2023-07-13T04:06:42;22.00;82.60
42097;DHT22;27754;45.414;11.084;2023-07-13T04:09:11;21.90;83.10
42097;DHT22;27754;45.414;11.084;2023-07-13T04:11:38;22.00;82.70
42097;DHT22;27754;45.414;11.084;2023-07-13T04:14:05;21.90;82.20
42097;DHT22;27754;45.414;11.084;2023-07-13T04:16:33;22.00;81.80
42097;DHT22;27754;45.414;11.084;2023-07-13T04:19:01;22.00;81.50
42097;DHT22;27754;45.414;11.084;2023-07-13T04:21:29;22.00;81.60
42097;DHT22;27754;45.414;11.084;2023-07-13T04:23:57;22.10;81.00
42097;DHT22;27754;45.414;11.084;2023-07-13T04:26:25;22.30;80.80
42097;DHT22;27754;45.414;11.084;2023-07-13T04:28:52;22.50;79.90
42097;DHT22;27754;45.414;11.084;2023-07-13T04:31:19;22.60;78.60
42097;DHT22;27754;45.414;11.084;2023-07-13T04:33:47;22.80;77.70
42097;DHT22;27754;45.414;11.084;2023-07-13T04:36:16;22.90;76.90
42097;DHT22;27754;45.414;11.084;2023-07-13T04:38:43;23.30;76.60
42097;DHT22;27754;45.414;11.084;2023-07-13T04:41:11;23.70;76.20
42097;DHT22;27754;45.414;11.084;2023-07-13T04:43:38;24.00;75.10
42097;DHT22;27754;45.414;11.084;2023-07-13T04:46:08;24.30;73.40
42097;DHT22;27754;45.414;11.084;2023-07-13T04:48:35;24.40;72.30
42097;DHT22;27754;45.414;11.084;2023-07-13T04:51:03;24.40;72.70
42097;DHT22;27754;45.414;11.084;2023-07-13T04:53:30;24.30;73.30
42097;DHT22;27754;45.414;11.084;2023-07-13T04:55:59;24.50;73.60
42097;DHT22;27754;45.414;11.084;2023-07-13T04:58:26;24.80;72.60
42097;DHT22;27754;45.414;11.084;2023-07-13T05:01:00;24.80;70.60
42097;DHT22;27754;45.414;11.084;2023-07-13T05:03:27;24.70;71.80
42097;DHT22;27754;45.414;11.084;2023-07-13T05:05:59;24.60;72.00
42097;DHT22;27754;45.414;11.084;2023-07-13T05:08:27;24.60;71.70
42097;DHT22;27754;45.414;11.084;2023-07-13T05:10:54;24.60;71.10
42097;DHT22;27754;45.414;11.084;2023-07-13T05:13:21;24.60;71.90
42097;DHT22;27754;45.414;11.084;2023-07-13T05:16:02;24.80;71.30
42097;DHT22;27754;45.414;11.084;2023-07-13T05:18:31;24.60;72.10
42097;DHT22;27754;45.414;11.084;2023-07-13T05:21:03;24.30;72.90
42097;DHT22;27754;45.414;11.084;2023-07-13T05:23:32;24.10;73.80
42097;DHT22;27754;45.414;11.084;2023-07-13T05:26:00;23.40;74.70
42097;DHT22;27754;45.414;11.084;2023-07-13T05:28:28;23.30;75.40
42097;DHT22;27754;45.414;11.084;2023-07-13T05:30:56;23.30;75.70
42097;DHT22;27754;45.414;11.084;2023-07-13T05:33:24;23.30;75.80
42097;DHT22;27754;45.414;11.084;2023-07-13T05:35:51;23.30;75.70
42097;DHT22;27754;45.414;11.084;2023-07-13T05:38:18;23.30;75.50
42097;DHT22;27754;45.414;11.084;2023-07-13T05:40:46;23.40;75.60
42097;DHT22;27754;45.414;11.084;2023-07-13T05:43:13;23.40;74.60
42097;DHT22;27754;45.414;11.084;2023-07-13T05:45:40;23.30;75.40
42097;DHT22;27754;45.414;11.084;2023-07-13T05:48:07;23.30;75.30
42097;DHT22;27754;45.414;11.084;2023-07-13T05:50:34;23.50;74.60
42097;DHT22;27754;45.414;11.084;2023-07-13T05:53:01;23.50;74.70
42097;DHT22;27754;45.414;11.084;2023-07-13T05:55:29;23.70;74.40
42097;DHT22;27754;45.414;11.084;2023-07-13T05:57:56;23.80;74.50
42097;DHT22;27754;45.414;11.084;2023-07-13T06:00:25;23.90;73.90
42097;DHT22;27754;45.414;11.084;2023-07-13T06:02:52;24.00;73.40
42097;DHT22;27754;45.414;11.084;2023-07-13T06:05:19;24.10;71.30
42097;DHT22;27754;45.414;11.084;2023-07-13T06:07:46;24.20;71.70
42097;DHT22;27754;45.414;11.084;2023-07-13T06:10:13;24.30;71.70
42097;DHT22;27754;45.414;11.084;2023-07-13T06:12:40;24.30;72.10
42097;DHT22;27754;45.414;11.084;2023-07-13T06:15:07;24.40;72.20
42097;DHT22;27754;45.414;11.084;2023-07-13T06:17:34;24.60;71.40
42097;DHT22;27754;45.414;11.084;2023-07-13T06:20:02;24.70;71.60
42097;DHT22;27754;45.414;11.084;2023-07-13T06:22:29;24.70;71.90
42097;DHT22;27754;45.414;11.084;2023-07-13T06:24:56;24.60;71.80
42097;DHT22;27754;45.414;11.084;2023-07-13T06:27:23;24.60;72.40
42097;DHT22;27754;45.414;11.084;2023-07-13T06:29:50;24.60;72.90
42097;DHT22;27754;45.414;11.084;2023-07-13T06:32:17;24.60;73.40
42097;DHT22;27754;45.414;11.084;2023-07-13T06:34:44;24.50;73.90
42097;DHT22;27754;45.414;11.084;2023-07-13T06:37:11;24.40;73.30
42097;DHT22;27754;45.414;11.084;2023-07-13T06:39:38;24.50;72.60
42097;DHT22;27754;45.414;11.084;2023-07-13T06:42:06;24.40;73.10
42097;DHT22;27754;45.414;11.084;2023-07-13T06:44:33;24.40;73.20
42097;DHT22;27754;45.414;11.084;2023-07-13T06:47:00;24.30;74.30
42097;DHT22;27754;45.414;11.084;2023-07-13T06:49:27;24.20;74.30
42097;DHT22;27754;45.414;11.084;2023-07-13T06:51:54;24.20;73.80
42097;DHT22;27754;45.414;11.084;2023-07-13T06:54:21;24.20;74.20
42097;DHT22;27754;45.414;11.084;2023-07-13T06:56:48;24.20;74.70
42097;DHT22;27754;45.414;11.084;2023-07-13T06:59:15;24.20;75.20
42097;DHT22;27754;45.414;11.084;2023-07-13T07:01:42;24.20;75.90
42097;DHT22;27754;45.414;11.084;2023-07-13T07:04:10;24.20;75.30
42097;DHT22;27754;45.414;11.084;2023-07-13T07:06:37;24.10;75.10
42097;DHT22;27754;45.414;11.084;2023-07-13T07:09:04;24.10;75.90
42097;DHT22;27754;45.414;11.084;2023-07-13T07:11:31;24.20;75.90
42097;DHT22;27754;45.414;11.084;2023-07-13T07:13:57;24.20;75.30
42097;DHT22;27754;45.414;11.084;2023-07-13T07:16:25;24.20;75.30
42097;DHT22;27754;45.414;11.084;2023-07-13T07:18:52;24.20;75.60
42097;DHT22;27754;45.414;11.084;2023-07-13T07:21:19;24.30;75.40
42097;DHT22;27754;45.414;11.084;2023-07-13T07:23:46;24.30;74.80
42097;DHT22;27754;45.414;11.084;2023-07-13T07:26:13;24.50;74.50
42097;DHT22;27754;45.414;11.084;2023-07-13T07:28:40;24.50;74.70
42097;DHT22;27754;45.414;11.084;2023-07-13T07:31:14;24.60;74.20
42097;DHT22;27754;45.414;11.084;2023-07-13T07:33:44;24.80;73.50
42097;DHT22;27754;45.414;11.084;2023-07-13T07:36:12;24.90;73.60
42097;DHT22;27754;45.414;11.084;2023-07-13T07:38:42;24.80;73.40
42097;DHT22;27754;45.414;11.084;2023-07-13T07:41:10;25.10;72.60
42097;DHT22;27754;45.414;11.084;2023-07-13T07:43:40;25.10;71.60
42097;DHT22;27754;45.414;11.084;2023-07-13T07:46:07;25.30;72.30
42097;DHT22;27754;45.414;11.084;2023-07-13T07:48:34;25.40;71.50
42097;DHT22;27754;45.414;11.084;2023-07-13T07:51:01;25.60;71.40
42097;DHT22;27754;45.414;11.084;2023-07-13T07:53:28;25.60;71.20
42097;DHT22;27754;45.414;11.084;2023-07-13T07:55:57;25.70;71.80
42097;DHT22;27754;45.414;11.084;2023-07-13T07:58:44;25.70;70.40
42097;DHT22;27754;45.414;11.084;2023-07-13T08:01:14;25.60;71.20
42097;DHT22;27754;45.414;11.084;2023-07-13T08:03:44;25.60;70.20
42097;DHT22;27754;45.414;11.084;2023-07-13T08:06:14;25.60;70.20
42097;DHT22;27754;45.414;11.084;2023-07-13T08:09:01;25.60;70.10
42097;DHT22;27754;45.414;11.084;2023-07-13T08:11:29;25.60;69.70
42097;DHT22;27754;45.414;11.084;2023-07-13T08:13:59;25.50;69.20
42097;DHT22;27754;45.414;11.084;2023-07-13T08:16:26;25.40;69.70
42097;DHT22;27754;45.414;11.084;2023-07-13T08:18:53;25.40;69.90
42097;DHT22;27754;45.414;11.084;2023-07-13T08:21:20;25.30;70.50
42097;DHT22;27754;45.414;11.084;2023-07-13T08:23:47;25.30;70.10
42097;DHT22;27754;45.414;11.084;2023-07-13T08:26:14;25.30;69.80
42097;DHT22;27754;45.414;11.084;2023-07-13T08:28:41;25.30;69.60
42097;DHT22;27754;45.414;11.084;2023-07-13T08:31:09;25.00;69.40
42097;DHT22;27754;45.414;11.084;2023-07-13T08:33:37;24.80;70.20
42097;DHT22;27754;45.414;11.084;2023-07-13T08:36:05;24.60;71.00
42097;DHT22;27754;45.414;11.084;2023-07-13T08:38:32;24.70;71.30
42097;DHT22;27754;45.414;11.084;2023-07-13T08:41:00;24.70;71.50
42097;DHT22;27754;45.414;11.084;2023-07-13T08:43:35;24.80;71.30
42097;DHT22;27754;45.414;11.084;2023-07-13T08:46:18;24.80;72.00
42097;DHT22;27754;45.414;11.084;2023-07-13T08:49:01;24.90;72.70
42097;DHT22;27754;45.414;11.084;2023-07-13T08:51:35;25.00;73.00
42097;DHT22;27754;45.414;11.084;2023-07-13T08:54:27;25.20;73.00
42097;DHT22;27754;45.414;11.084;2023-07-13T08:56:56;25.20;73.40
42097;DHT22;27754;45.414;11.084;2023-07-13T08:59:27;25.20;73.50
42097;DHT22;27754;45.414;11.084;2023-07-13T09:04:39;25.20;74.30
42097;DHT22;27754;45.414;11.084;2023-07-13T09:10:04;25.20;74.20
42097;DHT22;27754;45.414;11.084;2023-07-13T09:12:54;25.30;74.30
42097;DHT22;27754;45.414;11.084;2023-07-13T09:15:34;25.20;74.30
42097;DHT22;27754;45.414;11.084;2023-07-13T09:18:08;25.20;74.70
42097;DHT22;27754;45.414;11.084;2023-07-13T09:20:37;25.10;74.70
42097;DHT22;27754;45.414;11.084;2023-07-13T09:23:15;25.10;74.70
42097;DHT22;27754;45.414;11.084;2023-07-13T09:25:47;25.00;74.10
42097;DHT22;27754;45.414;11.084;2023-07-13T09:28:18;25.10;74.20
42097;DHT22;27754;45.414;11.084;2023-07-13T09:33:45;24.90;74.60
42097;DHT22;27754;45.414;11.084;2023-07-13T09:36:31;25.00;74.20
42097;DHT22;27754;45.414;11.084;2023-07-13T09:41:43;25.10;76.20
42097;DHT22;27754;45.414;11.084;2023-07-13T09:44:14;25.30;76.00
42097;DHT22;27754;45.414;11.084;2023-07-13T09:46:47;25.50;76.10
42097;DHT22;27754;45.414;11.084;2023-07-13T09:49:22;25.60;76.30
42097;DHT22;27754;45.414;11.084;2023-07-13T09:51:58;25.80;76.30
42097;DHT22;27754;45.414;11.084;2023-07-13T09:54:27;25.90;75.10
42097;DHT22;27754;45.414;11.084;2023-07-13T09:57:01;26.00;75.00
42097;DHT22;27754;45.414;11.084;2023-07-13T09:59:40;26.20;73.50
42097;DHT22;27754;45.414;11.084;2023-07-13T10:02:28;26.50;73.20
42097;DHT22;27754;45.414;11.084;2023-07-13T10:07:32;27.20;69.60
42097;DHT22;27754;45.414;11.084;2023-07-13T10:10:01;27.80;68.60
42097;DHT22;27754;45.414;11.084;2023-07-13T10:12:30;28.10;67.80
42097;DHT22;27754;45.414;11.084;2023-07-13T10:15:02;28.30;66.00
42097;DHT22;27754;45.414;11.084;2023-07-13T10:17:51;28.40;65.50
42097;DHT22;27754;45.414;11.084;2023-07-13T10:20:20;28.60;65.40
42097;DHT22;27754;45.414;11.084;2023-07-13T10:22:52;28.80;65.50
42097;DHT22;27754;45.414;11.084;2023-07-13T10:25:24;29.10;63.90
42097;DHT22;27754;45.414;11.084;2023-07-13T10:28:03;29.30;63.10
42097;DHT22;27754;45.414;11.084;2023-07-13T10:30:35;29.60;60.80
42097;DHT22;27754;45.414;11.084;2023-07-13T10:33:10;29.60;62.00
42097;DHT22;27754;45.414;11.084;2023-07-13T10:35:41;29.80;61.30
42097;DHT22;27754;45.414;11.084;2023-07-13T10:38:18;30.00;61.00
42097;DHT22;27754;45.414;11.084;2023-07-13T10:41:01;30.00;61.50
42097;DHT22;27754;45.414;11.084;2023-07-13T10:43:47;30.30;61.60
42097;DHT22;27754;45.414;11.084;2023-07-13T10:46:19;30.30;61.40
42097;DHT22;27754;45.414;11.084;2023-07-13T10:48:52;30.50;59.90
42097;DHT22;27754;45.414;11.084;2023-07-13T10:51:21;30.60;60.40
42097;DHT22;27754;45.414;11.084;2023-07-13T10:56:52;30.80;59.20
42097;DHT22;27754;45.414;11.084;2023-07-13T10:59:27;30.80;60.70
42097;DHT22;27754;45.414;11.084;2023-07-13T11:04:43;31.20;59.30
42097;DHT22;27754;45.414;11.084;2023-07-13T11:07:29;31.30;60.10
42097;DHT22;27754;45.414;11.084;2023-07-13T11:09:57;31.10;58.20
42097;DHT22;27754;45.414;11.084;2023-07-13T11:22:51;30.90;60.90
42097;DHT22;27754;45.414;11.084;2023-07-13T11:25:31;31.00;59.20
42097;DHT22;27754;45.414;11.084;2023-07-13T11:33:22;30.80;60.20
42097;DHT22;27754;45.414;11.084;2023-07-13T11:38:51;30.90;58.00
42097;DHT22;27754;45.414;11.084;2023-07-13T11:41:26;30.30;58.40
42097;DHT22;27754;45.414;11.084;2023-07-13T11:44:02;30.30;58.20
42097;DHT22;27754;45.414;11.084;2023-07-13T11:46:31;30.70;56.40
42097;DHT22;27754;45.414;11.084;2023-07-13T11:48:59;30.70;56.30
42097;DHT22;27754;45.414;11.084;2023-07-13T11:51:32;30.60;57.40
42097;DHT22;27754;45.414;11.084;2023-07-13T11:54:04;30.50;59.80
42097;DHT22;27754;45.414;11.084;2023-07-13T11:56:31;30.20;60.70
42097;DHT22;27754;45.414;11.084;2023-07-13T11:59:06;30.30;60.60
42097;DHT22;27754;45.414;11.084;2023-07-13T12:01:36;30.40;61.10
42097;DHT22;27754;45.414;11.084;2023-07-13T12:04:18;30.50;60.40
42097;DHT22;27754;45.414;11.084;2023-07-13T12:06:55;30.60;61.30
42097;DHT22;27754;45.414;11.084;2023-07-13T12:09:22;30.40;60.40
42097;DHT22;27754;45.414;11.084;2023-07-13T12:11:52;30.30;60.50
42097;DHT22;27754;45.414;11.084;2023-07-13T12:14:19;30.20;61.20
42097;DHT22;27754;45.414;11.084;2023-07-13T12:16:47;30.30;61.70
42097;DHT22;27754;45.414;11.084;2023-07-13T12:19:25;30.30;60.80
42097;DHT22;27754;45.414;11.084;2023-07-13T12:21:55;30.10;60.80
42097;DHT22;27754;45.414;11.084;2023-07-13T12:24:24;30.00;61.10
42097;DHT22;27754;45.414;11.084;2023-07-13T12:27:02;30.10;60.90
42097;DHT22;27754;45.414;11.084;2023-07-13T12:29:32;30.40;60.40
42097;DHT22;27754;45.414;11.084;2023-07-13T12:31:59;30.50;60.90
42097;DHT22;27754;45.414;11.084;2023-07-13T12:34:27;30.60;58.40
42097;DHT22;27754;45.414;11.084;2023-07-13T12:37:01;30.70;59.80
42097;DHT22;27754;45.414;11.084;2023-07-13T12:45:18;30.80;58.70
42097;DHT22;27754;45.414;11.084;2023-07-13T12:47:58;30.80;59.00
42097;DHT22;27754;45.414;11.084;2023-07-13T12:50:34;30.90;59.80
42097;DHT22;27754;45.414;11.084;2023-07-13T12:53:03;30.90;59.20
42097;DHT22;27754;45.414;11.084;2023-07-13T12:55:30;31.00;59.90
42097;DHT22;27754;45.414;11.084;2023-07-13T12:58:02;31.20;60.20
42097;DHT22;27754;45.414;11.084;2023-07-13T13:00:36;30.90;59.70
42097;DHT22;27754;45.414;11.084;2023-07-13T13:03:26;30.60;59.50
42097;DHT22;27754;45.414;11.084;2023-07-13T13:06:01;30.90;59.60
42097;DHT22;27754;45.414;11.084;2023-07-13T13:08:35;31.00;57.30
42097;DHT22;27754;45.414;11.084;2023-07-13T13:11:02;31.30;58.10
42097;DHT22;27754;45.414;11.084;2023-07-13T13:13:29;31.50;56.60
42097;DHT22;27754;45.414;11.084;2023-07-13T13:16:19;31.80;55.40
42097;DHT22;27754;45.414;11.084;2023-07-13T13:18:47;31.90;55.40
42097;DHT22;27754;45.414;11.084;2023-07-13T13:21:16;32.20;55.20
42097;DHT22;27754;45.414;11.084;2023-07-13T13:23:43;32.00;55.00
42097;DHT22;27754;45.414;11.084;2023-07-13T13:26:12;31.90;54.90
42097;DHT22;27754;45.414;11.084;2023-07-13T13:28:40;31.60;54.70
42097;DHT22;27754;45.414;11.084;2023-07-13T13:31:11;31.40;55.90
42097;DHT22;27754;45.414;11.084;2023-07-13T13:33:40;31.50;54.90
42097;DHT22;27754;45.414;11.084;2023-07-13T13:38:42;31.90;54.40
42097;DHT22;27754;45.414;11.084;2023-07-13T13:41:11;32.00;54.30
42097;DHT22;27754;45.414;11.084;2023-07-13T13:43:41;32.10;54.70
42097;DHT22;27754;45.414;11.084;2023-07-13T13:46:18;32.10;54.60
42097;DHT22;27754;45.414;11.084;2023-07-13T13:48:46;32.10;54.10
42097;DHT22;27754;45.414;11.084;2023-07-13T13:51:18;32.30;53.80
42097;DHT22;27754;45.414;11.084;2023-07-13T13:53:47;32.20;54.80
42097;DHT22;27754;45.414;11.084;2023-07-13T13:56:15;32.30;54.60
42097;DHT22;27754;45.414;11.084;2023-07-13T13:58:42;32.40;54.80
42097;DHT22;27754;45.414;11.084;2023-07-13T14:01:14;32.50;54.70
42097;DHT22;27754;45.414;11.084;2023-07-13T14:03:43;32.10;56.90
42097;DHT22;27754;45.414;11.084;2023-07-13T14:06:12;31.90;57.10
42097;DHT22;27754;45.414;11.084;2023-07-13T14:08:40;32.00;55.90
42097;DHT22;27754;45.414;11.084;2023-07-13T14:11:12;31.90;55.90
42097;DHT22;27754;45.414;11.084;2023-07-13T14:13:52;31.70;56.80
42097;DHT22;27754;45.414;11.084;2023-07-13T14:16:25;31.70;56.90
42097;DHT22;27754;45.414;11.084;2023-07-13T14:18:55;31.60;56.50
42097;DHT22;27754;45.414;11.084;2023-07-13T14:21:26;31.60;55.80
42097;DHT22;27754;45.414;11.084;2023-07-13T14:23:53;31.30;57.40
42097;DHT22;27754;45.414;11.084;2023-07-13T14:26:23;31.40;57.70
42097;DHT22;27754;45.414;11.084;2023-07-13T14:28:55;31.40;57.50
42097;DHT22;27754;45.414;11.084;2023-07-13T14:31:24;31.40;58.00
42097;DHT22;27754;45.414;11.084;2023-07-13T14:33:56;31.40;57.00
42097;DHT22;27754;45.414;11.084;2023-07-13T14:38:54;31.30;58.20
42097;DHT22;27754;45.414;11.084;2023-07-13T14:41:21;31.20;57.90
42097;DHT22;27754;45.414;11.084;2023-07-13T14:43:48;31.20;58.20
42097;DHT22;27754;45.414;11.084;2023-07-13T14:46:29;31.20;57.50
42097;DHT22;27754;45.414;11.084;2023-07-13T14:49:27;31.30;57.50
42097;DHT22;27754;45.414;11.084;2023-07-13T14:51:51;31.70;57.80
42097;DHT22;27754;45.414;11.084;2023-07-13T14:54:19;31.90;56.30
42097;DHT22;27754;45.414;11.084;2023-07-13T14:56:46;32.10;57.00
42097;DHT22;27754;45.414;11.084;2023-07-13T14:59:13;32.40;56.20
42097;DHT22;27754;45.414;11.084;2023-07-13T15:01:40;32.80;53.60
42097;DHT22;27754;45.414;11.084;2023-07-13T15:04:08;32.70;55.40
42097;DHT22;27754;45.414;11.084;2023-07-13T15:06:59;32.40;55.40
42097;DHT22;27754;45.414;11.084;2023-07-13T15:09:27;32.50;55.50
42097;DHT22;27754;45.414;11.084;2023-07-13T15:11:57;32.10;55.60
42097;DHT22;27754;45.414;11.084;2023-07-13T15:14:25;32.30;54.60
42097;DHT22;27754;45.414;11.084;2023-07-13T15:16:55;32.00;55.10
42097;DHT22;27754;45.414;11.084;2023-07-13T15:19:23;31.80;55.30
42097;DHT22;27754;45.414;11.084;2023-07-13T15:21:50;31.80;55.20
42097;DHT22;27754;45.414;11.084;2023-07-13T15:24:19;31.70;55.10
42097;DHT22;27754;45.414;11.084;2023-07-13T15:26:48;31.60;55.90
42097;DHT22;27754;45.414;11.084;2023-07-13T15:29:17;31.50;56.70
42097;DHT22;27754;45.414;11.084;2023-07-13T15:31:44;31.40;56.80
42097;DHT22;27754;45.414;11.084;2023-07-13T15:34:15;31.30;57.70
42097;DHT22;27754;45.414;11.084;2023-07-13T15:36:43;31.10;58.30
42097;DHT22;27754;45.414;11.084;2023-07-13T15:39:15;31.00;58.20
42097;DHT22;27754;45.414;11.084;2023-07-13T15:41:46;30.80;58.80
42097;DHT22;27754;45.414;11.084;2023-07-13T15:44:41;30.50;59.40
42097;DHT22;27754;45.414;11.084;2023-07-13T15:47:12;30.60;58.90
42097;DHT22;27754;45.414;11.084;2023-07-13T15:49:40;30.60;57.50
42097;DHT22;27754;45.414;11.084;2023-07-13T15:52:25;30.70;58.70
42097;DHT22;27754;45.414;11.084;2023-07-13T15:54:54;30.90;56.80
42097;DHT22;27754;45.414;11.084;2023-07-13T15:57:21;30.90;58.30
42097;DHT22;27754;45.414;11.084;2023-07-13T15:59:48;31.10;57.60
42097;DHT22;27754;45.414;11.084;2023-07-13T16:02:20;31.30;57.70
42097;DHT22;27754;45.414;11.084;2023-07-13T16:04:47;31.30;56.40
42097;DHT22;27754;45.414;11.084;2023-07-13T16:07:17;31.30;55.30
42097;DHT22;27754;45.414;11.084;2023-07-13T16:09:45;31.30;56.20
42097;DHT22;27754;45.414;11.084;2023-07-13T16:12:14;31.40;56.00
42097;DHT22;27754;45.414;11.084;2023-07-13T16:14:43;31.20;57.00
42097;DHT22;27754;45.414;11.084;2023-07-13T16:17:11;31.30;57.40
42097;DHT22;27754;45.414;11.084;2023-07-13T16:19:40;31.30;56.20
42097;DHT22;27754;45.414;11.084;2023-07-13T16:22:16;31.30;56.40